Time;durP1;ratioP1;P1;durP2;ratioP2;P2;SDS_P1;SDS_P2;PMS_P1;PMS_P2;Temp;Humidity;BMP_temperature;BMP_pressure;BME280_temperature;BME280_humidity;BME280_pressure;Samples;Min_cycle;Max_cycle;Signal;HPM_P1;HPM_P2
2024/04/25 00:01:02;;;;;;;3.58;1.63;;;;;;;13.78;100.00;98873.41;5244034;27;20426;-71
2024/04/25 00:03:28;;;;;;;2.60;1.63;;;;;;;13.90;100.00;98885.97;5217909;27;20010;-71
2024/04/25 00:05:56;;;;;;;2.28;1.42;;;;;;;13.85;100.00;98888.44;5158016;27;20003;-72
2024/04/25 00:08:24;;;;;;;2.45;1.65;;;;;;;13.80;100.00;98880.19;5184326;27;20014;-71
2024/04/25 00:10:53;;;;;;;4.75;1.77;;;;;;;13.68;100.00;98886.25;5209313;27;19999;-71
2024/04/25 00:13:25;;;;;;;8.25;2.35;;;;;;;13.85;100.00;98883.09;5208768;27;20429;-71
2024/04/25 00:15:57;;;;;;;4.68;1.70;;;;;;;13.81;100.00;98881.81;5223711;27;20320;-71
2024/04/25 00:18:24;;;;;;;1.58;1.40;;;;;;;13.88;100.00;98871.19;5209450;27;20458;-71
2024/04/25 00:20:50;;;;;;;2.47;1.60;;;;;;;13.92;100.00;98877.78;5127943;27;20051;-71
2024/04/25 00:23:16;;;;;;;3.20;1.70;;;;;;;13.89;100.00;98875.50;5211251;27;20417;-71
2024/04/25 00:25:42;;;;;;;2.67;1.75;;;;;;;13.83;100.00;98857.59;5216413;27;20016;-70
2024/04/25 00:28:08;;;;;;;3.95;1.73;;;;;;;13.69;100.00;98853.22;5244908;27;20009;-71
2024/04/25 00:30:34;;;;;;;2.20;1.60;;;;;;;13.74;100.00;98837.44;5163346;27;20038;-70
2024/04/25 00:33:01;;;;;;;2.53;1.80;;;;;;;13.79;100.00;98841.19;5190909;27;20003;-70
2024/04/25 00:35:27;;;;;;;2.05;1.70;;;;;;;13.78;100.00;98836.03;5217422;27;20446;-71
2024/04/25 00:37:53;;;;;;;2.83;1.67;;;;;;;13.74;100.00;98840.94;5217336;27;20077;-71
2024/04/25 00:40:19;;;;;;;1.92;1.50;;;;;;;13.87;100.00;98834.84;5217281;27;19998;-71
2024/04/25 00:42:45;;;;;;;2.03;1.70;;;;;;;13.78;100.00;98822.69;5217602;27;20350;-71
2024/04/25 00:45:12;;;;;;;4.95;2.08;;;;;;;13.77;100.00;98835.22;5217960;27;20382;-71
2024/04/25 00:47:38;;;;;;;2.65;2.05;;;;;;;13.72;100.00;98812.78;5190792;27;20015;-71
2024/04/25 00:50:05;;;;;;;3.47;1.90;;;;;;;13.71;100.00;98801.31;5297824;26;19996;-71
2024/04/25 00:52:34;;;;;;;2.45;2.00;;;;;;;13.50;100.00;98799.56;5290811;26;20415;-71
2024/04/25 00:55:04;;;;;;;3.60;2.25;;;;;;;13.53;100.00;98795.66;5289951;26;20316;-71
2024/04/25 00:57:33;;;;;;;4.15;1.85;;;;;;;13.56;100.00;98782.75;5291145;26;20008;-70
2024/04/25 01:00:03;;;;;;;2.10;1.80;;;;;;;13.64;100.00;98772.94;5290116;26;20000;-71
2024/04/25 01:02:32;;;;;;;2.90;2.25;;;;;;;13.45;100.00;98769.16;5291824;26;20537;-71
2024/04/25 01:05:01;;;;;;;4.85;2.20;;;;;;;13.45;100.00;98764.63;5289958;26;20004;-71
2024/04/25 01:07:26;;;;;;;3.30;2.40;;;;;;;13.37;100.00;98758.66;5261445;26;20397;-71
2024/04/25 01:09:56;;;;;;;3.53;2.20;;;;;;;13.42;100.00;98765.03;5260593;26;20027;-71
2024/04/25 01:12:25;;;;;;;4.38;2.20;;;;;;;13.45;100.00;98748.63;5260290;26;19992;-71
2024/04/25 01:14:52;;;;;;;4.38;2.22;;;;;;;13.40;100.00;98735.09;5262256;26;20127;-71
2024/04/25 01:17:18;;;;;;;3.25;2.58;;;;;;;13.35;100.00;98731.34;5234721;26;20035;-71
2024/04/25 01:19:44;;;;;;;4.30;2.47;;;;;;;13.26;100.00;98725.38;5262256;26;20002;-70
2024/04/25 01:22:11;;;;;;;3.38;2.63;;;;;;;13.28;100.00;98723.31;5318935;26;20008;-71
2024/04/25 01:24:37;;;;;;;3.80;2.45;;;;;;;13.40;100.00;98719.09;5290147;26;20110;-71
2024/04/25 01:27:04;;;;;;;4.72;2.40;;;;;;;13.55;100.00;98727.75;5264620;26;20012;-71
2024/04/25 01:29:31;;;;;;;3.25;2.08;;;;;;;13.53;100.00;98705.78;5349018;26;20000;-72
2024/04/25 01:31:57;;;;;;;5.03;2.40;;;;;;;13.35;100.00;98718.00;5355168;26;20000;-70
2024/04/25 01:34:24;;;;;;;5.22;2.95;;;;;;;13.37;100.00;98718.66;5332135;26;20061;-70
2024/04/25 01:36:51;;;;;;;4.78;2.60;;;;;;;13.40;100.00;98713.75;5329539;26;20470;-70
2024/04/25 01:39:17;;;;;;;4.03;2.28;;;;;;;13.39;100.00;98690.75;5299149;26;20337;-71
2024/04/25 01:41:43;;;;;;;4.80;2.65;;;;;;;13.28;100.00;98701.97;5356839;26;20003;-71
2024/04/25 01:44:11;;;;;;;6.40;3.10;;;;;;;13.31;100.00;98706.94;5327346;26;19996;-71
2024/04/25 01:46:42;;;;;;;4.82;3.03;;;;;;;13.30;100.00;98691.09;5298272;26;20052;-71
2024/04/25 01:49:08;;;;;;;8.82;2.60;;;;;;;13.28;100.00;98691.31;5327650;26;19999;-70
2024/04/25 01:51:34;;;;;;;2.90;2.22;;;;;;;13.36;100.00;98691.13;5327100;26;20010;-71
2024/04/25 01:54:00;;;;;;;5.18;2.63;;;;;;;13.41;100.00;98680.72;5300058;26;20007;-71
2024/04/25 01:56:29;;;;;;;4.63;2.30;;;;;;;13.48;100.00;98667.41;5301533;26;19995;-71
2024/04/25 01:58:55;;;;;;;2.88;2.47;;;;;;;13.26;100.00;98664.03;5331052;26;19995;-71
2024/04/25 02:01:21;;;;;;;8.20;3.03;;;;;;;13.18;100.00;98664.19;5302279;26;19995;-71
2024/04/25 02:03:48;;;;;;;6.22;2.70;;;;;;;13.29;100.00;98666.31;5329133;26;20006;-71
2024/04/25 02:06:14;;;;;;;3.25;2.30;;;;;;;13.34;100.00;98666.53;5330367;26;20374;-71
2024/04/25 02:08:40;;;;;;;3.05;2.20;;;;;;;13.33;100.00;98675.53;5323353;26;20007;-71
2024/04/25 02:11:07;;;;;;;3.42;2.17;;;;;;;13.27;100.00;98659.50;5351487;26;20008;-71
2024/04/25 02:13:34;;;;;;;4.78;2.65;;;;;;;13.25;100.00;98664.22;5286794;26;20047;-71
2024/04/25 02:16:00;;;;;;;3.92;3.00;;;;;;;13.29;100.00;98660.13;5287229;26;20075;-70
2024/04/25 02:18:26;;;;;;;3.92;2.60;;;;;;;13.34;100.00;98663.88;5286657;26;20419;-71
2024/04/25 02:26:20;;;;;;;3.53;2.50;;;;;;;13.42;100.00;98669.00;5262463;26;20012;-69
2024/04/25 02:28:46;;;;;;;3.60;2.47;;;;;;;13.42;100.00;98655.66;5258262;26;20451;-70
2024/04/25 02:31:13;;;;;;;4.60;2.10;;;;;;;13.48;100.00;98657.53;5258245;26;20011;-70
2024/04/25 02:33:39;;;;;;;3.33;2.55;;;;;;;13.37;100.00;98670.63;5258588;26;20438;-71
2024/04/25 02:36:06;;;;;;;10.38;2.55;;;;;;;13.44;100.00;98661.63;5258279;26;20089;-71
2024/04/25 02:38:32;;;;;;;3.88;2.22;;;;;;;13.49;100.00;98651.19;5286501;26;20008;-71
2024/04/25 02:40:58;;;;;;;3.85;2.58;;;;;;;13.45;100.00;98676.63;5258272;26;20001;-70
2024/04/25 02:43:24;;;;;;;3.40;2.60;;;;;;;13.43;100.00;98660.00;5258044;26;20008;-71
2024/04/25 02:45:50;;;;;;;3.05;2.15;;;;;;;13.54;100.00;98656.78;5321739;26;20306;-70
2024/04/25 02:48:16;;;;;;;2.55;2.08;;;;;;;13.58;100.00;98663.34;5322153;26;20069;-71
2024/04/25 02:50:41;;;;;;;6.75;2.70;;;;;;;13.50;100.00;98676.00;5321889;26;20000;-71
2024/04/25 02:53:07;;;;;;;3.15;2.15;;;;;;;13.55;100.00;98674.41;5321840;26;20003;-71
2024/04/25 02:55:34;;;;;;;4.10;2.35;;;;;;;13.70;100.00;98671.56;5321772;26;20001;-71
2024/04/25 02:58:01;;;;;;;2.75;2.08;;;;;;;13.73;100.00;98652.47;5322127;26;20423;-70
2024/04/25 03:00:29;;;;;;;2.67;2.10;;;;;;;13.86;100.00;98670.38;5322226;26;20012;-72
2024/04/25 03:02:55;;;;;;;2.30;2.00;;;;;;;14.05;100.00;98673.09;5351521;26;20180;-71
2024/04/25 03:05:21;;;;;;;4.72;2.50;;;;;;;13.90;100.00;98671.63;5294232;26;20008;-71
2024/04/25 03:07:47;;;;;;;3.30;2.22;;;;;;;13.91;100.00;98663.41;5322011;26;20000;-70
2024/04/25 03:10:12;;;;;;;4.15;2.17;;;;;;;13.92;100.00;98672.22;5321664;26;20001;-71
2024/04/25 03:12:38;;;;;;;9.23;2.28;;;;;;;14.04;100.00;98658.09;5321845;26;20095;-71
2024/04/25 03:15:05;;;;;;;3.17;2.10;;;;;;;14.14;100.00;98666.53;5322107;26;20423;-71
2024/04/25 03:17:32;;;;;;;3.67;2.00;;;;;;;14.17;100.00;98657.28;5322113;26;20442;-71
2024/04/25 03:19:59;;;;;;;7.47;2.78;;;;;;;14.04;100.00;98662.63;5321671;26;20008;-71
2024/04/25 03:22:26;;;;;;;3.40;2.20;;;;;;;14.05;100.00;98653.59;5321782;26;20000;-71
2024/04/25 03:24:52;;;;;;;5.93;3.15;;;;;;;13.96;100.00;98660.94;5349866;26;20000;-72
2024/04/25 03:27:20;;;;;;;5.72;2.67;;;;;;;14.03;100.00;98656.47;5322877;26;20008;-70
2024/04/25 03:29:45;;;;;;;6.75;2.55;;;;;;;14.06;100.00;98633.84;5322110;26;20071;-71
2024/04/25 03:32:11;;;;;;;5.47;2.72;;;;;;;14.04;100.00;98638.59;5321362;26;20505;-71
2024/04/25 03:34:37;;;;;;;3.85;2.30;;;;;;;13.98;100.00;98640.22;5293206;26;20000;-72
2024/04/25 03:37:03;;;;;;;5.80;2.28;;;;;;;14.18;100.00;98632.22;5294688;26;20000;-70
2024/04/25 03:39:32;;;;;;;4.18;2.17;;;;;;;14.23;100.00;98641.28;5342713;26;20400;-71
2024/04/25 03:41:59;;;;;;;6.13;2.40;;;;;;;14.18;100.00;98637.56;5314085;26;20346;-71
2024/04/25 03:44:25;;;;;;;5.70;3.00;;;;;;;14.21;100.00;98631.81;5257390;26;19996;-70
2024/04/25 03:46:51;;;;;;;7.57;2.55;;;;;;;14.25;100.00;98623.22;5257268;26;20011;-70
2024/04/25 03:49:16;;;;;;;6.10;2.50;;;;;;;14.16;100.00;98639.63;5313899;26;20008;-71
2024/04/25 03:51:42;;;;;;;4.72;2.47;;;;;;;14.24;100.00;98616.22;5313485;26;20037;-71
2024/04/25 03:54:10;;;;;;;5.32;2.42;;;;;;;14.39;100.00;98605.34;5285435;26;20436;-73
2024/04/25 03:56:36;;;;;;;3.78;2.38;;;;;;;14.42;100.00;98615.63;5230440;26;20451;-71
2024/04/25 03:59:02;;;;;;;7.35;2.55;;;;;;;14.45;100.00;98612.53;5313473;26;20012;-71
2024/04/25 04:01:29;;;;;;;4.40;2.60;;;;;;;14.44;100.00;98617.03;5257398;26;20067;-71
2024/04/25 04:03:55;;;;;;;4.68;2.78;;;;;;;14.50;100.00;98612.75;5284562;26;20041;-71
2024/04/25 04:06:21;;;;;;;3.70;2.15;;;;;;;14.71;100.00;98620.50;5256553;26;19997;-72
2024/04/25 04:08:47;;;;;;;3.95;2.58;;;;;;;14.54;100.00;98597.91;5256184;26;19993;-71
2024/04/25 04:11:13;;;;;;;3.20;2.30;;;;;;;14.67;100.00;98614.75;5250847;27;19998;-71
2024/04/25 04:13:39;;;;;;;4.47;2.42;;;;;;;14.59;100.00;98611.50;5195412;27;20002;-72
2024/04/25 04:16:09;;;;;;;6.28;2.40;;;;;;;14.62;100.00;98608.41;5223153;27;20017;-73
2024/04/25 04:18:35;;;;;;;5.03;2.40;;;;;;;14.66;100.00;98615.78;5223261;27;20120;-72
2024/04/25 04:21:02;;;;;;;13.10;2.72;;;;;;;14.87;100.00;98595.97;5222724;27;20309;-72
2024/04/25 04:23:28;;;;;;;3.75;2.38;;;;;;;14.94;100.00;98602.16;5249223;27;20016;-72
2024/04/25 04:25:55;;;;;;;3.70;2.10;;;;;;;14.88;100.00;98597.63;5222583;27;20009;-71
2024/04/25 04:28:21;;;;;;;7.05;2.53;;;;;;;14.91;100.00;98586.53;5194749;27;20056;-74
2024/04/25 04:30:47;;;;;;;3.95;2.20;;;;;;;14.96;100.00;98576.81;5199987;27;20018;-72
2024/04/25 04:33:15;;;;;;;3.75;2.30;;;;;;;15.09;100.00;98560.75;5182216;27;20509;-70
2024/04/25 04:35:44;;;;;;;4.70;2.60;;;;;;;14.95;100.00;98575.19;5211708;27;20479;-70
2024/04/25 04:38:10;;;;;;;4.18;2.30;;;;;;;15.09;100.00;98558.06;5203181;27;20003;-71
2024/04/25 04:40:37;;;;;;;3.55;2.38;;;;;;;15.19;100.00;98557.63;5191784;27;20003;-77
2024/04/25 04:43:10;;;;;;;4.30;2.37;;;;;;;15.28;100.00;98570.50;5245684;27;20030;-75
2024/04/25 04:45:36;;;;;;;7.18;2.53;;;;;;;15.14;100.00;98566.25;5221044;27;20391;-71
2024/04/25 04:48:02;;;;;;;4.65;3.08;;;;;;;15.10;100.00;98548.16;5193344;27;20014;-70
2024/04/25 04:50:28;;;;;;;5.53;2.70;;;;;;;15.17;100.00;98565.84;5184009;27;20043;-70
2024/04/25 04:52:54;;;;;;;6.18;3.30;;;;;;;15.32;100.00;98538.81;5220484;27;20068;-68
2024/04/25 04:55:19;;;;;;;6.00;2.33;;;;;;;15.70;100.00;98555.66;5264131;27;20017;-71
2024/04/25 04:57:45;;;;;;;3.80;2.20;;;;;;;15.80;100.00;98550.66;5181476;27;20026;-71
2024/04/25 05:00:14;;;;;;;7.45;2.67;;;;;;;16.04;100.00;98555.22;5242772;27;20001;-72
2024/04/25 05:02:41;;;;;;;4.20;2.33;;;;;;;16.15;100.00;98553.66;5321166;26;20008;-70
2024/04/25 05:05:07;;;;;;;3.03;1.85;;;;;;;16.40;100.00;98543.75;5274275;26;20075;-70
2024/04/25 05:07:36;;;;;;;8.18;2.17;;;;;;;16.56;100.00;98554.75;5287962;26;20009;-70
2024/04/25 05:10:02;;;;;;;3.97;2.40;;;;;;;16.52;100.00;98544.69;5260652;26;20011;-71
2024/04/25 05:12:31;;;;;;;4.10;2.22;;;;;;;16.48;100.00;98554.22;5261705;26;20016;-71
2024/04/25 05:14:57;;;;;;;6.40;2.75;;;;;;;16.31;100.00;98559.28;5316720;26;20408;-71
2024/04/25 05:17:24;;;;;;;3.42;2.30;;;;;;;16.29;100.00;98541.81;5288124;26;20005;-71
2024/04/25 05:19:50;;;;;;;3.92;2.28;;;;;;;16.50;100.00;98544.91;5287467;26;20009;-74
2024/04/25 05:22:16;;;;;;;4.82;2.10;;;;;;;16.80;100.00;98540.44;5279115;26;20019;-73
2024/04/25 05:24:47;;;;;;;8.43;3.10;;;;;;;16.95;100.00;98547.28;5334693;26;20004;-73
2024/04/25 05:27:15;;;;;;;3.08;2.00;;;;;;;16.98;100.00;98552.19;5264351;26;20000;-73
2024/04/25 05:29:43;;;;;;;6.50;2.42;;;;;;;17.16;100.00;98541.47;5325635;26;20028;-73
2024/04/25 05:32:11;;;;;;;3.85;2.38;;;;;;;17.37;100.00;98543.66;5352198;26;19997;-73
2024/04/25 05:34:43;;;;;;;5.05;2.03;;;;;;;17.38;100.00;98546.09;5292010;26;20066;-73
2024/04/25 05:37:11;;;;;;;8.18;2.10;;;;;;;17.54;100.00;98536.63;5378325;26;20011;-73
2024/04/25 05:39:37;;;;;;;3.38;2.15;;;;;;;17.87;100.00;98543.13;5293844;26;20335;-73
2024/04/25 05:42:03;;;;;;;5.47;1.77;;;;;;;18.27;100.00;98556.72;5321744;26;20004;-72
2024/04/25 05:44:29;;;;;;;7.68;2.30;;;;;;;18.32;100.00;98560.38;5322301;26;20057;-72
2024/04/25 05:46:55;;;;;;;7.43;2.10;;;;;;;18.14;100.00;98567.72;5322381;26;20000;-72
2024/04/25 05:49:21;;;;;;;4.28;1.90;;;;;;;18.21;100.00;98541.53;5293812;26;20065;-73
2024/04/25 05:51:47;;;;;;;6.90;1.92;;;;;;;18.33;100.00;98531.59;5380513;26;20439;-73
2024/04/25 05:54:13;;;;;;;6.85;2.03;;;;;;;18.51;100.00;98546.81;5351295;26;20010;-73
2024/04/25 05:56:39;;;;;;;3.47;2.13;;;;;;;18.59;100.00;98536.53;5322234;26;20036;-72
2024/04/25 05:59:09;;;;;;;5.90;2.20;;;;;;;18.70;100.00;98537.59;5351307;26;20008;-73
2024/04/25 06:01:35;;;;;;;7.18;2.38;;;;;;;18.76;100.00;98533.94;5322317;26;20506;-73
2024/04/25 06:04:01;;;;;;;4.03;2.00;;;;;;;18.89;100.00;98542.56;5350826;26;20015;-72
2024/04/25 06:06:27;;;;;;;3.85;2.08;;;;;;;18.84;100.00;98550.53;5321651;26;20004;-73
2024/04/25 06:08:54;;;;;;;3.13;2.15;;;;;;;18.82;100.00;98536.47;5350570;26;20036;-73
2024/04/25 06:11:22;;;;;;;3.38;2.08;;;;;;;18.98;100.00;98551.91;5350805;26;20020;-73
2024/04/25 06:13:51;;;;;;;2.72;2.00;;;;;;;19.23;100.00;98555.13;5323139;26;20028;-73
2024/04/25 06:16:19;;;;;;;4.53;1.95;;;;;;;19.53;100.00;98573.75;5380229;26;20004;-73
2024/04/25 06:18:48;;;;;;;5.63;2.10;;;;;;;19.41;100.00;98565.72;5349778;26;20031;-73
2024/04/25 06:21:14;;;;;;;5.22;2.00;;;;;;;19.51;100.00;98600.13;5293251;26;20445;-74
2024/04/25 06:23:40;;;;;;;5.68;2.10;;;;;;;19.34;100.00;98546.19;5292579;26;19996;-72
2024/04/25 06:26:06;;;;;;;7.55;2.20;;;;;;;19.53;100.00;98546.81;5292565;26;20500;-73
2024/04/25 06:28:32;;;;;;;10.80;2.30;;;;;;;19.59;100.00;98529.69;5264606;26;20004;-73
2024/04/25 06:31:01;;;;;;;8.98;2.60;;;;;;;19.79;100.00;98548.91;5291982;26;20419;-73
2024/04/25 06:33:27;;;;;;;11.70;2.30;;;;;;;19.67;100.00;98534.69;5293458;26;20478;-73
2024/04/25 06:35:54;;;;;;;5.88;2.08;;;;;;;19.67;100.00;98565.13;5291460;26;20011;-73
2024/04/25 06:38:22;;;;;;;7.57;2.30;;;;;;;19.70;100.00;98548.50;5264702;26;20322;-73
2024/04/25 06:40:50;;;;;;;7.18;2.20;;;;;;;19.80;100.00;98548.66;5263926;26;20014;-72
2024/04/25 06:43:19;;;;;;;3.63;1.88;;;;;;;19.65;100.00;98556.47;5292538;26;20008;-73
2024/04/25 06:45:46;;;;;;;2.92;2.10;;;;;;;19.61;100.00;98570.66;5293526;26;20066;-73
2024/04/25 06:48:12;;;;;;;6.60;2.25;;;;;;;19.74;100.00;98546.94;5264005;26;20008;-73
2024/04/25 06:50:38;;;;;;;4.60;2.17;;;;;;;20.01;100.00;98561.44;5292225;26;20008;-73
2024/04/25 06:53:05;;;;;;;4.32;2.28;;;;;;;20.48;100.00;98561.13;5293027;26;20007;-73
2024/04/25 06:55:31;;;;;;;8.95;2.30;;;;;;;20.67;100.00;98547.09;5293272;26;20054;-73
2024/04/25 06:57:57;;;;;;;3.00;1.90;;;;;;;21.05;97.03;98557.88;5264098;26;20035;-73
2024/04/25 07:00:24;;;;;;;4.53;2.20;;;;;;;21.29;94.92;98558.44;5292212;26;19996;-74
2024/04/25 07:02:51;;;;;;;10.18;2.47;;;;;;;21.10;94.64;98551.72;5264584;26;20095;-73
2024/04/25 07:05:17;;;;;;;3.08;1.90;;;;;;;21.62;93.57;98552.88;5252298;27;20432;-73
2024/04/25 07:07:44;;;;;;;5.80;2.25;;;;;;;21.71;89.62;98545.94;5254649;27;20013;-73
2024/04/25 07:10:10;;;;;;;4.70;2.38;;;;;;;21.92;87.50;98563.19;5204982;27;20072;-73
2024/04/25 07:12:36;;;;;;;3.08;1.80;;;;;;;21.82;88.47;98531.47;5199799;27;19998;-72
2024/04/25 07:15:06;;;;;;;5.97;1.90;;;;;;;22.39;85.92;98543.28;5198062;27;20009;-74
2024/04/25 07:17:33;;;;;;;2.85;1.98;;;;;;;22.82;80.93;98547.63;5280457;27;20105;-73
2024/04/25 07:20:00;;;;;;;4.65;1.88;;;;;;;22.39;80.95;98548.72;5252560;27;20007;-73
2024/04/25 07:22:27;;;;;;;8.05;1.80;;;;;;;22.42;80.83;98564.41;5280578;27;20021;-73
2024/04/25 07:24:53;;;;;;;5.15;2.60;;;;;;;22.78;79.54;98551.97;5252459;27;19998;-73
2024/04/25 07:27:19;;;;;;;3.72;1.90;;;;;;;23.26;76.29;98549.78;5225115;27;20057;-72
2024/04/25 07:29:46;;;;;;;2.67;1.83;;;;;;;23.49;73.29;98569.38;5197900;27;20001;-72
2024/04/25 07:32:15;;;;;;;5.55;2.72;;;;;;;23.53;72.71;98557.72;5197558;27;20045;-73
2024/04/25 07:34:42;;;;;;;6.65;2.78;;;;;;;24.33;68.75;98548.88;5197672;27;20005;-73
2024/04/25 07:37:08;;;;;;;4.40;2.55;;;;;;;24.99;63.33;98565.91;5311504;26;20007;-73
2024/04/25 07:39:34;;;;;;;3.42;2.65;;;;;;;25.36;61.39;98539.13;5380267;26;20000;-73
2024/04/25 07:42:00;;;;;;;3.05;2.50;;;;;;;26.19;57.31;98541.59;5322114;26;20101;-73
2024/04/25 07:44:27;;;;;;;3.25;2.10;;;;;;;26.81;53.11;98550.81;5293064;26;20070;-73
2024/04/25 07:46:53;;;;;;;4.45;1.83;;;;;;;26.90;52.65;98535.47;5322126;26;20010;-74
2024/04/25 07:49:20;;;;;;;3.63;1.98;;;;;;;27.09;49.50;98542.63;5322079;26;20439;-73
2024/04/25 07:51:47;;;;;;;5.90;1.90;;;;;;;26.83;49.48;98545.91;5292375;26;20066;-73
2024/04/25 07:54:13;;;;;;;4.65;2.65;;;;;;;27.32;50.01;98541.00;5263314;26;20030;-73
2024/04/25 07:56:39;;;;;;;4.95;2.75;;;;;;;28.41;46.93;98528.69;5292527;26;20043;-73
2024/04/25 07:59:05;;;;;;;4.80;2.40;;;;;;;28.98;43.37;98520.81;5293018;26;20008;-74
2024/04/25 08:01:31;;;;;;;4.30;2.40;;;;;;;30.41;40.46;98535.38;5292653;26;20000;-73
2024/04/25 08:03:58;;;;;;;6.40;2.45;;;;;;;30.34;38.04;98545.13;5319473;26;20008;-73
2024/04/25 08:06:24;;;;;;;6.45;2.47;;;;;;;30.68;37.48;98532.47;5263279;26;20010;-73
2024/04/25 08:08:50;;;;;;;6.10;2.30;;;;;;;30.37;35.84;98541.81;5291133;26;20419;-73
2024/04/25 08:11:16;;;;;;;5.32;1.88;;;;;;;29.66;37.82;98544.59;5262867;26;20008;-75
2024/04/25 08:13:42;;;;;;;5.72;2.78;;;;;;;29.17;39.31;98537.94;5291104;26;20012;-74
2024/04/25 08:16:08;;;;;;;4.68;2.78;;;;;;;30.20;38.81;98550.69;5290526;26;20014;-85
2024/04/25 08:18:35;;;;;;;9.13;2.60;;;;;;;30.98;36.24;98545.34;5291454;26;20427;-72
2024/04/25 08:21:03;;;;;;;5.60;2.47;;;;;;;31.65;35.18;98548.66;5319518;26;20028;-74
2024/04/25 08:23:29;;;;;;;6.85;2.60;;;;;;;31.49;34.35;98541.97;5324650;26;19996;-72
2024/04/25 08:25:56;;;;;;;4.97;2.00;;;;;;;31.24;35.21;98539.97;5352329;26;20313;-73
2024/04/25 08:28:22;;;;;;;6.82;2.25;;;;;;;30.52;35.43;98539.47;5352558;26;20012;-73
2024/04/25 08:30:49;;;;;;;6.75;3.20;;;;;;;31.06;34.82;98527.34;5381541;26;20004;-76
2024/04/25 08:33:22;;;;;;;5.97;3.53;;;;;;;30.96;34.42;98547.63;5382134;26;19996;-78
2024/04/25 08:36:08;;;;;;;5.63;3.17;;;;;;;31.57;34.25;98543.94;5356960;26;20004;-74
2024/04/25 08:38:36;;;;;;;5.57;2.80;;;;;;;32.58;32.76;98545.06;5380325;26;20012;-76
2024/04/25 08:41:03;;;;;;;4.72;2.30;;;;;;;33.03;30.70;98533.66;5323537;26;20068;-72
2024/04/25 08:43:30;;;;;;;5.25;2.95;;;;;;;31.89;32.41;98546.25;5294927;26;20004;-75
2024/04/25 08:45:57;;;;;;;10.23;3.45;;;;;;;30.29;34.53;98539.81;5322869;26;20004;-73
2024/04/25 08:48:24;;;;;;;6.80;2.20;;;;;;;30.07;35.98;98537.03;5323021;26;20015;-71
2024/04/25 08:50:51;;;;;;;4.10;2.30;;;;;;;29.69;35.94;98552.19;5351740;26;20010;-71
2024/04/25 08:53:21;;;;;;;3.55;1.77;;;;;;;29.85;36.91;98532.34;5349530;26;20360;-71
2024/04/25 08:55:48;;;;;;;2.65;1.60;;;;;;;29.36;37.68;98532.34;5294410;26;20059;-72
2024/04/25 08:58:15;;;;;;;8.80;2.10;;;;;;;28.38;39.49;98530.13;5349154;26;20008;-72
2024/04/25 09:00:42;;;;;;;5.53;2.38;;;;;;;27.86;40.85;98544.06;5350919;26;20015;-71
2024/04/25 09:03:09;;;;;;;7.88;3.78;;;;;;;28.03;41.55;98545.16;5378779;26;20001;-72
2024/04/25 09:05:35;;;;;;;8.50;4.00;;;;;;;28.84;40.52;98539.13;5323068;26;20000;-71
2024/04/25 09:08:01;;;;;;;6.93;2.30;;;;;;;29.48;39.06;98527.97;5381352;26;20118;-71
2024/04/25 09:10:40;;;;;;;4.15;3.40;;;;;;;29.85;38.53;98531.53;5325519;26;20073;-71
2024/04/25 09:13:06;;;;;;;4.78;3.90;;;;;;;30.34;37.77;98529.53;5382893;26;20032;-71
2024/04/25 09:15:32;;;;;;;5.30;2.10;;;;;;;30.10;37.77;98536.41;5351810;26;20011;-72
2024/04/25 09:17:58;;;;;;;3.40;1.77;;;;;;;29.14;39.12;98522.13;5352258;26;20423;-72
2024/04/25 09:20:30;;;;;;;8.18;2.45;;;;;;;27.82;41.84;98521.16;5324749;26;20015;-71
2024/04/25 09:22:56;;;;;;;6.57;2.20;;;;;;;26.69;45.44;98531.34;5323787;26;20014;-71
2024/04/25 09:25:22;;;;;;;6.57;2.00;;;;;;;25.88;49.82;98528.47;5294835;26;20074;-72
2024/04/25 09:27:48;;;;;;;5.28;2.45;;;;;;;25.51;52.29;98522.75;5380796;26;20012;-71
2024/04/25 09:30:17;;;;;;;9.95;2.50;;;;;;;25.35;54.23;98537.50;5351432;26;20005;-72
2024/04/25 09:32:43;;;;;;;5.47;2.63;;;;;;;24.99;57.22;98534.09;5322514;26;20005;-71
2024/04/25 09:35:12;;;;;;;8.23;3.70;;;;;;;25.14;59.72;98525.88;5352325;26;20011;-71
2024/04/25 09:37:39;;;;;;;6.00;2.22;;;;;;;25.94;56.26;98527.34;5351787;26;20012;-71
2024/04/25 09:40:08;;;;;;;7.35;6.45;;;;;;;27.99;49.38;98537.84;5351343;26;20014;-72
2024/04/25 09:42:35;;;;;;;5.18;4.43;;;;;;;30.48;42.62;98535.72;5351272;26;20016;-71
2024/04/25 09:45:06;;;;;;;6.68;4.60;;;;;;;32.26;36.85;98553.84;5322569;26;20006;-71
2024/04/25 09:47:56;;;;;;;6.13;2.20;;;;;;;31.81;35.24;98522.34;5351526;26;20015;-72
2024/04/25 09:50:26;;;;;;;10.05;2.50;;;;;;;30.10;37.53;98525.47;5393051;26;20035;-72
2024/04/25 09:52:58;;;;;;;;;;;;;;;28.97;40.70;98526.59;5323591;26;20001;-72
2024/04/25 09:55:32;;;;;;;5.03;1.77;;;;;;;27.54;44.91;98538.50;5380505;26;19933;-72
2024/04/25 09:58:01;;;;;;;8.88;2.58;;;;;;;26.03;50.50;98531.91;5322400;26;20008;-71
2024/04/25 10:00:28;;;;;;;7.53;2.47;;;;;;;25.25;55.87;98542.97;5351213;26;20000;-71
2024/04/25 10:02:55;;;;;;;7.60;2.45;;;;;;;25.30;58.31;98535.59;5322579;26;20004;-71
2024/04/25 10:05:21;;;;;;;5.22;3.55;;;;;;;25.95;56.04;98576.03;5322250;26;20320;-71
2024/04/25 10:07:48;;;;;;;6.15;2.30;;;;;;;27.00;52.33;98551.72;5293826;26;20058;-71
2024/04/25 10:10:15;;;;;;;6.28;2.45;;;;;;;26.80;51.66;98568.28;5322838;26;20465;-71
2024/04/25 10:12:48;;;;;;;8.10;2.10;;;;;;;26.20;53.55;98561.47;5350900;26;20003;-71
2024/04/25 10:15:25;;;;;;;10.88;2.20;;;;;;;25.36;58.00;98530.97;5321882;26;20004;-72
2024/04/25 10:17:50;;;;;;;7.65;2.25;;;;;;;24.96;61.02;98533.81;5350498;26;19996;-71
2024/04/25 10:20:20;;;;;;;5.80;2.80;;;;;;;25.22;62.50;98549.75;5350536;26;20000;-71
2024/04/25 10:22:59;;;;;;;8.35;4.65;;;;;;;27.23;54.80;98559.06;5350603;26;20020;-71
2024/04/25 10:25:25;;;;;;;6.72;4.97;;;;;;;27.99;51.38;98560.50;5379955;26;20004;-71
2024/04/25 10:28:00;;;;;;;19.67;4.82;;;;;;;29.17;45.98;98627.34;5379650;26;20012;-71
2024/04/25 10:30:26;;;;;;;12.40;4.63;;;;;;;29.07;44.76;98592.84;5380027;26;20000;-71
2024/04/25 10:32:52;;;;;;;6.95;4.38;;;;;;;29.03;44.41;98618.31;5322029;26;20000;-72
2024/04/25 10:35:18;;;;;;;6.28;3.53;;;;;;;29.79;43.43;98566.44;5350324;26;20015;-71
2024/04/25 10:37:46;;;;;;;8.38;3.70;;;;;;;31.36;39.34;98584.09;5379381;26;20001;-72
2024/04/25 10:40:13;;;;;;;9.70;3.03;;;;;;;31.95;37.81;98599.13;5343125;26;20101;-72
2024/04/25 10:42:40;;;;;;;8.68;2.38;;;;;;;30.69;38.82;98569.72;5286249;26;20037;-72
2024/04/25 10:45:07;;;;;;;9.93;4.28;;;;;;;30.20;40.13;98566.34;5313659;26;20001;-72
2024/04/25 10:47:34;;;;;;;8.50;2.05;;;;;;;30.29;39.57;98553.50;5314328;26;20011;-72
2024/04/25 10:50:01;;;;;;;7.65;2.38;;;;;;;29.19;41.34;98575.91;5314840;26;20040;-71
2024/04/25 10:52:31;;;;;;;3.65;2.30;;;;;;;28.34;43.66;98588.38;5288370;26;20502;-71
2024/04/25 10:54:58;;;;;;;6.72;2.65;;;;;;;27.69;46.55;98562.84;5314541;26;20001;-71
2024/04/25 10:57:27;;;;;;;5.50;2.20;;;;;;;26.92;49.76;98568.69;5314569;26;20008;-71
2024/04/25 10:59:56;;;;;;;2.75;1.80;;;;;;;26.66;51.84;98557.25;5258053;26;20001;-71
2024/04/25 11:02:22;;;;;;;5.82;2.20;;;;;;;26.39;53.99;98554.22;5314501;26;20020;-71
2024/04/25 11:04:49;;;;;;;9.60;3.17;;;;;;;26.51;54.49;98553.84;5314239;26;20056;-71
2024/04/25 11:07:16;;;;;;;4.80;2.40;;;;;;;26.15;56.08;98564.22;5257854;26;20013;-71
2024/04/25 11:09:42;;;;;;;13.15;2.33;;;;;;;25.80;58.50;98554.38;5258117;26;20000;-71
2024/04/25 11:12:08;;;;;;;10.95;2.30;;;;;;;25.87;59.88;98563.03;5371815;26;20470;-71
2024/04/25 11:14:34;;;;;;;6.53;2.65;;;;;;;25.77;60.26;98560.38;5293001;26;20011;-71
2024/04/25 11:17:01;;;;;;;8.02;2.53;;;;;;;25.32;62.87;98557.88;5350513;26;20304;-71
2024/04/25 11:19:29;;;;;;;16.80;3.17;;;;;;;25.14;64.10;98582.16;5321640;26;20011;-71
2024/04/25 11:21:56;;;;;;;10.30;2.70;;;;;;;25.24;65.15;98573.94;5350623;26;19997;-71
2024/04/25 11:24:23;;;;;;;7.25;2.20;;;;;;;25.21;65.84;98561.72;5321122;26;20008;-71
2024/04/25 11:26:53;;;;;;;4.40;2.08;;;;;;;25.06;66.77;98574.56;5320791;26;20370;-71
2024/04/25 11:29:19;;;;;;;7.53;2.60;;;;;;;24.76;68.51;98570.00;5350555;26;20015;-71
2024/04/25 11:31:45;;;;;;;9.73;2.45;;;;;;;24.70;70.02;98571.13;5378565;26;20000;-71
2024/04/25 11:34:19;;;;;;;4.53;1.98;;;;;;;24.66;72.72;98559.19;5320702;26;20359;-71